Weybridge, United Kingdom
Current Conditions -  °F | °C
As of 12:20 AM on Wednesday 26 Nov 2014 (Local Time) from EGLL Reporting Station
Light Rain Light Rain  
Wind Chill: 46°   Ceiling: 1100
Heat Index: 46°   Visibility: 2.9mi
Dew Point: 45°   Wind: 3mph
Humidity: 93%   Direction: 40°NE
Pressure: 29.97"   Gusts: NA
Location:  51.38°N, 0.45°W
Report Text: EGLL 260020Z AUTO 04003KT 4700 -RA BKN011/// //////CB 08/07 Q1015 RERA
Loading
Personal Weather Stations






























Interactive Weather Map New forecast layout! Learn more

10-Day Weather Forecast

Advertisements
Track Severe Weather on mobile